sensor_id;sensor_type;location;lat;lon;timestamp;P1;durP1;ratioP1;P2;durP2;ratioP2
19285;SDS011;9776;50.798;6.430;2022-12-07T00:01:47;9.95;;;9.25;;
19285;SDS011;9776;50.798;6.430;2022-12-07T00:04:14;8.77;;;8.18;;
19285;SDS011;9776;50.798;6.430;2022-12-07T00:06:44;9.48;;;8.88;;
19285;SDS011;9776;50.798;6.430;2022-12-07T00:09:12;9.45;;;8.75;;
19285;SDS011;9776;50.798;6.430;2022-12-07T00:11:41;9.20;;;8.50;;
19285;SDS011;9776;50.798;6.430;2022-12-07T00:14:10;8.68;;;8.07;;
19285;SDS011;9776;50.798;6.430;2022-12-07T00:16:38;9.25;;;8.55;;
19285;SDS011;9776;50.798;6.430;2022-12-07T00:19:05;9.35;;;8.68;;
19285;SDS011;9776;50.798;6.430;2022-12-07T00:21:33;9.85;;;9.15;;
19285;SDS011;9776;50.798;6.430;2022-12-07T00:24:01;8.13;;;7.63;;
19285;SDS011;9776;50.798;6.430;2022-12-07T00:26:30;8.68;;;8.07;;
19285;SDS011;9776;50.798;6.430;2022-12-07T00:28:59;9.85;;;9.15;;
19285;SDS011;9776;50.798;6.430;2022-12-07T00:31:28;8.60;;;8.00;;
19285;SDS011;9776;50.798;6.430;2022-12-07T00:33:58;8.52;;;7.93;;
19285;SDS011;9776;50.798;6.430;2022-12-07T00:36:25;9.15;;;8.45;;
19285;SDS011;9776;50.798;6.430;2022-12-07T00:38:52;9.48;;;8.77;;
19285;SDS011;9776;50.798;6.430;2022-12-07T00:41:19;9.77;;;9.07;;
19285;SDS011;9776;50.798;6.430;2022-12-07T00:43:48;9.63;;;8.93;;
19285;SDS011;9776;50.798;6.430;2022-12-07T00:46:17;9.05;;;8.43;;
19285;SDS011;9776;50.798;6.430;2022-12-07T00:48:45;8.80;;;8.10;;
19285;SDS011;9776;50.798;6.430;2022-12-07T00:51:13;8.70;;;8.07;;
19285;SDS011;9776;50.798;6.430;2022-12-07T00:53:42;9.88;;;9.07;;
19285;SDS011;9776;50.798;6.430;2022-12-07T00:56:09;8.90;;;8.30;;
19285;SDS011;9776;50.798;6.430;2022-12-07T00:58:38;10.52;;;9.73;;
19285;SDS011;9776;50.798;6.430;2022-12-07T01:01:05;9.50;;;8.85;;
19285;SDS011;9776;50.798;6.430;2022-12-07T01:03:34;9.13;;;8.50;;
19285;SDS011;9776;50.798;6.430;2022-12-07T01:06:01;9.55;;;8.95;;
19285;SDS011;9776;50.798;6.430;2022-12-07T01:08:28;9.52;;;8.82;;
19285;SDS011;9776;50.798;6.430;2022-12-07T01:10:59;8.93;;;8.32;;
19285;SDS011;9776;50.798;6.430;2022-12-07T01:13:26;9.15;;;8.45;;
19285;SDS011;9776;50.798;6.430;2022-12-07T01:15:56;8.68;;;8.07;;
19285;SDS011;9776;50.798;6.430;2022-12-07T01:18:25;9.13;;;8.52;;
19285;SDS011;9776;50.798;6.430;2022-12-07T01:21:00;9.75;;;9.02;;
19285;SDS011;9776;50.798;6.430;2022-12-07T01:23:28;8.25;;;7.65;;
19285;SDS011;9776;50.798;6.430;2022-12-07T01:25:55;8.70;;;8.10;;
19285;SDS011;9776;50.798;6.430;2022-12-07T01:28:22;8.48;;;7.88;;
19285;SDS011;9776;50.798;6.430;2022-12-07T01:30:57;9.00;;;8.40;;
19285;SDS011;9776;50.798;6.430;2022-12-07T01:33:26;8.63;;;8.02;;
19285;SDS011;9776;50.798;6.430;2022-12-07T01:35:54;9.00;;;8.40;;
19285;SDS011;9776;50.798;6.430;2022-12-07T01:38:22;8.40;;;7.70;;
19285;SDS011;9776;50.798;6.430;2022-12-07T01:40:53;8.93;;;8.32;;
19285;SDS011;9776;50.798;6.430;2022-12-07T01:43:21;7.75;;;7.20;;
19285;SDS011;9776;50.798;6.430;2022-12-07T01:45:50;7.47;;;6.97;;
19285;SDS011;9776;50.798;6.430;2022-12-07T01:48:17;8.43;;;7.85;;
19285;SDS011;9776;50.798;6.430;2022-12-07T01:50:48;8.20;;;7.60;;
19285;SDS011;9776;50.798;6.430;2022-12-07T01:53:18;8.20;;;7.65;;
19285;SDS011;9776;50.798;6.430;2022-12-07T01:55:47;8.18;;;7.57;;
19285;SDS011;9776;50.798;6.430;2022-12-07T01:58:18;8.02;;;7.53;;
19285;SDS011;9776;50.798;6.430;2022-12-07T02:00:46;7.43;;;6.93;;
19285;SDS011;9776;50.798;6.430;2022-12-07T02:03:13;8.18;;;7.53;;
19285;SDS011;9776;50.798;6.430;2022-12-07T02:05:44;7.88;;;7.38;;
19285;SDS011;9776;50.798;6.430;2022-12-07T02:08:13;7.93;;;7.43;;
19285;SDS011;9776;50.798;6.430;2022-12-07T02:10:40;8.90;;;8.30;;
19285;SDS011;9776;50.798;6.430;2022-12-07T02:13:10;8.18;;;7.57;;
19285;SDS011;9776;50.798;6.430;2022-12-07T02:15:49;8.23;;;7.72;;
19285;SDS011;9776;50.798;6.430;2022-12-07T02:18:28;8.43;;;7.82;;
19285;SDS011;9776;50.798;6.430;2022-12-07T02:21:06;8.18;;;7.57;;
19285;SDS011;9776;50.798;6.430;2022-12-07T02:23:42;7.95;;;7.43;;
19285;SDS011;9776;50.798;6.430;2022-12-07T02:29:37;8.18;;;7.57;;
19285;SDS011;9776;50.798;6.430;2022-12-07T02:32:08;9.27;;;8.57;;
19285;SDS011;9776;50.798;6.430;2022-12-07T02:34:42;9.07;;;8.40;;
19285;SDS011;9776;50.798;6.430;2022-12-07T02:37:18;9.10;;;8.50;;
19285;SDS011;9776;50.798;6.430;2022-12-07T02:39:53;9.20;;;8.50;;
19285;SDS011;9776;50.798;6.430;2022-12-07T02:42:26;9.35;;;8.75;;
19285;SDS011;9776;50.798;6.430;2022-12-07T02:44:58;10.10;;;9.40;;
19285;SDS011;9776;50.798;6.430;2022-12-07T02:47:27;9.98;;;9.27;;
19285;SDS011;9776;50.798;6.430;2022-12-07T02:49:56;9.43;;;8.73;;
19285;SDS011;9776;50.798;6.430;2022-12-07T02:52:22;10.40;;;9.60;;
19285;SDS011;9776;50.798;6.430;2022-12-07T02:54:49;9.77;;;9.07;;
19285;SDS011;9776;50.798;6.430;2022-12-07T02:57:28;10.38;;;9.68;;
19285;SDS011;9776;50.798;6.430;2022-12-07T03:00:08;10.38;;;9.48;;
19285;SDS011;9776;50.798;6.430;2022-12-07T03:02:42;9.95;;;9.25;;
19285;SDS011;9776;50.798;6.430;2022-12-07T03:05:33;10.20;;;9.50;;
19285;SDS011;9776;50.798;6.430;2022-12-07T03:08:15;9.38;;;8.70;;
19285;SDS011;9776;50.798;6.430;2022-12-07T03:10:52;9.80;;;9.10;;
19285;SDS011;9776;50.798;6.430;2022-12-07T03:13:24;9.80;;;9.05;;
19285;SDS011;9776;50.798;6.430;2022-12-07T03:15:57;9.57;;;8.88;;
19285;SDS011;9776;50.798;6.430;2022-12-07T03:18:29;8.82;;;8.23;;
19285;SDS011;9776;50.798;6.430;2022-12-07T03:21:01;10.13;;;9.40;;
19285;SDS011;9776;50.798;6.430;2022-12-07T03:23:31;9.07;;;8.38;;
19285;SDS011;9776;50.798;6.430;2022-12-07T03:26:01;9.10;;;8.50;;
19285;SDS011;9776;50.798;6.430;2022-12-07T03:28:33;9.70;;;9.00;;
19285;SDS011;9776;50.798;6.430;2022-12-07T03:31:07;10.23;;;9.52;;
19285;SDS011;9776;50.798;6.430;2022-12-07T03:33:40;10.02;;;9.32;;
19285;SDS011;9776;50.798;6.430;2022-12-07T03:36:14;9.15;;;8.45;;
19285;SDS011;9776;50.798;6.430;2022-12-07T03:38:48;9.63;;;8.93;;
19285;SDS011;9776;50.798;6.430;2022-12-07T03:41:21;10.18;;;9.38;;
19285;SDS011;9776;50.798;6.430;2022-12-07T03:43:50;9.43;;;8.73;;
19285;SDS011;9776;50.798;6.430;2022-12-07T03:46:20;9.00;;;8.32;;
19285;SDS011;9776;50.798;6.430;2022-12-07T03:48:56;8.98;;;8.27;;
19285;SDS011;9776;50.798;6.430;2022-12-07T03:51:32;8.65;;;8.05;;
19285;SDS011;9776;50.798;6.430;2022-12-07T03:54:07;9.70;;;9.00;;
19285;SDS011;9776;50.798;6.430;2022-12-07T03:56:39;8.90;;;8.20;;
19285;SDS011;9776;50.798;6.430;2022-12-07T03:59:09;8.60;;;8.00;;
19285;SDS011;9776;50.798;6.430;2022-12-07T04:01:38;8.63;;;8.02;;
19285;SDS011;9776;50.798;6.430;2022-12-07T04:04:07;9.23;;;8.55;;
19285;SDS011;9776;50.798;6.430;2022-12-07T04:06:34;9.70;;;8.90;;
19285;SDS011;9776;50.798;6.430;2022-12-07T04:09:01;8.65;;;8.05;;
19285;SDS011;9776;50.798;6.430;2022-12-07T04:11:28;8.82;;;8.23;;
19285;SDS011;9776;50.798;6.430;2022-12-07T04:13:55;8.90;;;8.30;;
19285;SDS011;9776;50.798;6.430;2022-12-07T04:16:40;9.45;;;8.75;;
19285;SDS011;9776;50.798;6.430;2022-12-07T04:19:07;7.28;;;6.78;;
19285;SDS011;9776;50.798;6.430;2022-12-07T04:21:34;8.18;;;7.57;;
19285;SDS011;9776;50.798;6.430;2022-12-07T04:24:00;8.75;;;8.13;;
19285;SDS011;9776;50.798;6.430;2022-12-07T04:26:27;8.13;;;7.57;;
19285;SDS011;9776;50.798;6.430;2022-12-07T04:28:54;8.63;;;7.88;;
19285;SDS011;9776;50.798;6.430;2022-12-07T04:31:21;8.18;;;7.55;;
19285;SDS011;9776;50.798;6.430;2022-12-07T04:33:49;8.70;;;8.10;;
19285;SDS011;9776;50.798;6.430;2022-12-07T04:36:16;8.85;;;8.15;;
19285;SDS011;9776;50.798;6.430;2022-12-07T04:38:44;9.02;;;8.32;;
19285;SDS011;9776;50.798;6.430;2022-12-07T04:41:11;8.55;;;7.95;;
19285;SDS011;9776;50.798;6.430;2022-12-07T04:43:38;9.20;;;8.50;;
19285;SDS011;9776;50.798;6.430;2022-12-07T04:46:05;9.13;;;8.43;;
19285;SDS011;9776;50.798;6.430;2022-12-07T04:48:32;8.77;;;8.18;;
19285;SDS011;9776;50.798;6.430;2022-12-07T04:51:00;9.13;;;8.43;;
19285;SDS011;9776;50.798;6.430;2022-12-07T04:53:28;8.52;;;7.93;;
19285;SDS011;9776;50.798;6.430;2022-12-07T04:55:55;8.45;;;7.85;;
19285;SDS011;9776;50.798;6.430;2022-12-07T04:58:21;8.48;;;7.88;;
19285;SDS011;9776;50.798;6.430;2022-12-07T05:00:48;8.57;;;7.97;;
19285;SDS011;9776;50.798;6.430;2022-12-07T05:03:15;9.55;;;8.85;;
19285;SDS011;9776;50.798;6.430;2022-12-07T05:05:41;8.93;;;8.32;;
19285;SDS011;9776;50.798;6.430;2022-12-07T05:08:10;8.02;;;7.53;;
19285;SDS011;9776;50.798;6.430;2022-12-07T05:10:36;8.43;;;7.82;;
19285;SDS011;9776;50.798;6.430;2022-12-07T05:13:03;7.95;;;7.45;;
19285;SDS011;9776;50.798;6.430;2022-12-07T05:15:30;8.10;;;7.60;;
19285;SDS011;9776;50.798;6.430;2022-12-07T05:17:57;8.63;;;7.93;;
19285;SDS011;9776;50.798;6.430;2022-12-07T05:20:23;8.80;;;8.15;;
19285;SDS011;9776;50.798;6.430;2022-12-07T05:22:50;9.02;;;8.32;;
19285;SDS011;9776;50.798;6.430;2022-12-07T05:25:18;9.18;;;8.48;;
19285;SDS011;9776;50.798;6.430;2022-12-07T05:27:45;8.32;;;7.72;;
19285;SDS011;9776;50.798;6.430;2022-12-07T05:30:12;8.15;;;7.55;;
19285;SDS011;9776;50.798;6.430;2022-12-07T05:32:39;8.52;;;7.90;;
19285;SDS011;9776;50.798;6.430;2022-12-07T05:35:06;8.73;;;8.13;;
19285;SDS011;9776;50.798;6.430;2022-12-07T05:37:33;8.60;;;8.00;;
19285;SDS011;9776;50.798;6.430;2022-12-07T05:40:00;8.57;;;7.93;;
19285;SDS011;9776;50.798;6.430;2022-12-07T05:42:28;7.57;;;7.07;;
19285;SDS011;9776;50.798;6.430;2022-12-07T05:44:54;8.45;;;7.85;;
19285;SDS011;9776;50.798;6.430;2022-12-07T05:47:21;9.23;;;8.52;;
19285;SDS011;9776;50.798;6.430;2022-12-07T05:49:48;9.20;;;8.50;;
19285;SDS011;9776;50.798;6.430;2022-12-07T05:52:15;9.35;;;8.65;;
19285;SDS011;9776;50.798;6.430;2022-12-07T05:54:41;8.90;;;8.25;;
19285;SDS011;9776;50.798;6.430;2022-12-07T05:57:08;8.52;;;7.93;;
19285;SDS011;9776;50.798;6.430;2022-12-07T05:59:36;8.23;;;7.63;;
19285;SDS011;9776;50.798;6.430;2022-12-07T06:02:03;8.20;;;7.50;;
19285;SDS011;9776;50.798;6.430;2022-12-07T06:04:31;8.95;;;8.27;;
19285;SDS011;9776;50.798;6.430;2022-12-07T06:07:01;9.40;;;8.57;;
19285;SDS011;9776;50.798;6.430;2022-12-07T06:09:28;8.10;;;7.50;;
19285;SDS011;9776;50.798;6.430;2022-12-07T06:11:55;9.50;;;8.80;;
19285;SDS011;9776;50.798;6.430;2022-12-07T06:14:41;8.35;;;7.65;;
19285;SDS011;9776;50.798;6.430;2022-12-07T06:17:08;9.00;;;8.30;;
19285;SDS011;9776;50.798;6.430;2022-12-07T06:19:35;8.68;;;7.97;;
19285;SDS011;9776;50.798;6.430;2022-12-07T06:22:02;8.57;;;7.88;;
19285;SDS011;9776;50.798;6.430;2022-12-07T06:24:30;8.75;;;8.00;;
19285;SDS011;9776;50.798;6.430;2022-12-07T06:26:57;8.52;;;7.82;;
19285;SDS011;9776;50.798;6.430;2022-12-07T06:29:24;9.27;;;8.48;;
19285;SDS011;9776;50.798;6.430;2022-12-07T06:31:53;9.23;;;8.52;;
19285;SDS011;9776;50.798;6.430;2022-12-07T06:34:20;9.65;;;8.95;;
19285;SDS011;9776;50.798;6.430;2022-12-07T06:36:48;8.90;;;8.20;;
19285;SDS011;9776;50.798;6.430;2022-12-07T06:39:16;8.40;;;7.80;;
19285;SDS011;9776;50.798;6.430;2022-12-07T06:41:43;8.45;;;7.85;;
19285;SDS011;9776;50.798;6.430;2022-12-07T06:44:11;8.63;;;7.93;;
19285;SDS011;9776;50.798;6.430;2022-12-07T06:46:38;9.32;;;8.45;;
19285;SDS011;9776;50.798;6.430;2022-12-07T06:49:06;8.25;;;7.65;;
19285;SDS011;9776;50.798;6.430;2022-12-07T06:51:33;8.38;;;7.68;;
19285;SDS011;9776;50.798;6.430;2022-12-07T06:54:01;8.52;;;7.90;;
19285;SDS011;9776;50.798;6.430;2022-12-07T06:56:28;7.82;;;7.30;;
19285;SDS011;9776;50.798;6.430;2022-12-07T06:58:55;7.88;;;7.28;;
19285;SDS011;9776;50.798;6.430;2022-12-07T07:01:22;7.95;;;7.35;;
19285;SDS011;9776;50.798;6.430;2022-12-07T07:03:49;8.50;;;7.80;;
19285;SDS011;9776;50.798;6.430;2022-12-07T07:06:17;7.65;;;7.05;;
19285;SDS011;9776;50.798;6.430;2022-12-07T07:08:44;8.02;;;7.32;;
19285;SDS011;9776;50.798;6.430;2022-12-07T07:11:11;7.70;;;7.13;;
19285;SDS011;9776;50.798;6.430;2022-12-07T07:13:38;8.00;;;7.50;;
19285;SDS011;9776;50.798;6.430;2022-12-07T07:16:05;8.20;;;7.53;;
19285;SDS011;9776;50.798;6.430;2022-12-07T07:18:33;8.27;;;7.68;;
19285;SDS011;9776;50.798;6.430;2022-12-07T07:21:00;7.40;;;6.85;;
19285;SDS011;9776;50.798;6.430;2022-12-07T07:23:28;7.82;;;7.22;;
19285;SDS011;9776;50.798;6.430;2022-12-07T07:25:55;7.70;;;7.10;;
19285;SDS011;9776;50.798;6.430;2022-12-07T07:28:22;8.25;;;7.50;;
19285;SDS011;9776;50.798;6.430;2022-12-07T07:30:49;7.90;;;7.30;;
19285;SDS011;9776;50.798;6.430;2022-12-07T07:33:16;7.82;;;7.22;;
19285;SDS011;9776;50.798;6.430;2022-12-07T07:35:43;8.27;;;7.57;;
19285;SDS011;9776;50.798;6.430;2022-12-07T07:38:09;7.93;;;7.32;;
19285;SDS011;9776;50.798;6.430;2022-12-07T07:40:37;8.80;;;8.10;;
19285;SDS011;9776;50.798;6.430;2022-12-07T07:43:04;8.30;;;7.63;;
19285;SDS011;9776;50.798;6.430;2022-12-07T07:45:31;8.40;;;7.80;;
19285;SDS011;9776;50.798;6.430;2022-12-07T07:47:57;8.45;;;7.75;;
19285;SDS011;9776;50.798;6.430;2022-12-07T07:50:24;8.18;;;7.57;;
19285;SDS011;9776;50.798;6.430;2022-12-07T07:52:51;8.00;;;7.40;;
19285;SDS011;9776;50.798;6.430;2022-12-07T07:55:18;8.77;;;8.07;;
19285;SDS011;9776;50.798;6.430;2022-12-07T07:57:46;8.05;;;7.50;;
19285;SDS011;9776;50.798;6.430;2022-12-07T08:00:13;8.63;;;8.02;;
19285;SDS011;9776;50.798;6.430;2022-12-07T08:02:41;8.52;;;7.82;;
19285;SDS011;9776;50.798;6.430;2022-12-07T08:05:09;8.07;;;7.32;;
19285;SDS011;9776;50.798;6.430;2022-12-07T08:07:36;7.35;;;6.85;;
19285;SDS011;9776;50.798;6.430;2022-12-07T08:10:04;7.63;;;7.05;;
19285;SDS011;9776;50.798;6.430;2022-12-07T08:12:31;7.45;;;6.95;;
19285;SDS011;9776;50.798;6.430;2022-12-07T08:15:04;7.53;;;7.03;;
19285;SDS011;9776;50.798;6.430;2022-12-07T08:17:31;8.13;;;7.50;;
19285;SDS011;9776;50.798;6.430;2022-12-07T08:19:59;7.97;;;7.38;;
19285;SDS011;9776;50.798;6.430;2022-12-07T08:22:26;7.53;;;6.93;;
19285;SDS011;9776;50.798;6.430;2022-12-07T08:24:52;7.55;;;7.00;;
19285;SDS011;9776;50.798;6.430;2022-12-07T08:27:19;7.57;;;6.97;;
19285;SDS011;9776;50.798;6.430;2022-12-07T08:29:48;8.18;;;7.57;;
19285;SDS011;9776;50.798;6.430;2022-12-07T08:32:17;7.90;;;7.38;;
19285;SDS011;9776;50.798;6.430;2022-12-07T08:34:43;7.20;;;6.70;;
19285;SDS011;9776;50.798;6.430;2022-12-07T08:37:10;7.10;;;6.60;;
19285;SDS011;9776;50.798;6.430;2022-12-07T08:39:37;7.95;;;7.35;;
19285;SDS011;9776;50.798;6.430;2022-12-07T08:42:04;8.02;;;7.43;;
19285;SDS011;9776;50.798;6.430;2022-12-07T08:44:30;8.35;;;7.75;;
19285;SDS011;9776;50.798;6.430;2022-12-07T08:46:58;7.70;;;7.10;;
19285;SDS011;9776;50.798;6.430;2022-12-07T08:49:30;8.20;;;7.60;;
19285;SDS011;9776;50.798;6.430;2022-12-07T08:51:59;7.22;;;6.72;;
19285;SDS011;9776;50.798;6.430;2022-12-07T08:54:26;7.88;;;7.28;;
19285;SDS011;9776;50.798;6.430;2022-12-07T08:56:54;7.78;;;7.22;;
19285;SDS011;9776;50.798;6.430;2022-12-07T08:59:22;7.68;;;7.07;;
19285;SDS011;9776;50.798;6.430;2022-12-07T09:01:49;7.60;;;7.00;;
19285;SDS011;9776;50.798;6.430;2022-12-07T09:04:16;7.60;;;7.10;;
19285;SDS011;9776;50.798;6.430;2022-12-07T09:06:44;7.40;;;6.80;;
19285;SDS011;9776;50.798;6.430;2022-12-07T09:09:11;7.65;;;7.13;;
19285;SDS011;9776;50.798;6.430;2022-12-07T09:11:40;7.22;;;6.63;;
19285;SDS011;9776;50.798;6.430;2022-12-07T09:14:07;7.18;;;6.68;;
19285;SDS011;9776;50.798;6.430;2022-12-07T09:16:34;7.38;;;6.82;;
19285;SDS011;9776;50.798;6.430;2022-12-07T09:19:00;7.20;;;6.60;;
19285;SDS011;9776;50.798;6.430;2022-12-07T09:21:27;7.25;;;6.75;;
19285;SDS011;9776;50.798;6.430;2022-12-07T09:23:56;6.25;;;5.85;;
19285;SDS011;9776;50.798;6.430;2022-12-07T09:26:22;7.10;;;6.60;;
19285;SDS011;9776;50.798;6.430;2022-12-07T09:28:49;6.20;;;5.70;;
19285;SDS011;9776;50.798;6.430;2022-12-07T09:31:16;6.13;;;5.63;;
19285;SDS011;9776;50.798;6.430;2022-12-07T09:33:43;5.90;;;5.47;;
19285;SDS011;9776;50.798;6.430;2022-12-07T09:36:10;5.57;;;5.10;;
19285;SDS011;9776;50.798;6.430;2022-12-07T09:38:36;5.68;;;5.30;;
19285;SDS011;9776;50.798;6.430;2022-12-07T09:41:05;5.25;;;4.85;;
19285;SDS011;9776;50.798;6.430;2022-12-07T09:43:33;5.38;;;4.95;;
19285;SDS011;9776;50.798;6.430;2022-12-07T09:46:01;6.00;;;5.60;;
19285;SDS011;9776;50.798;6.430;2022-12-07T09:48:30;5.70;;;5.30;;
19285;SDS011;9776;50.798;6.430;2022-12-07T09:50:58;5.85;;;5.45;;
19285;SDS011;9776;50.798;6.430;2022-12-07T09:53:27;5.43;;;5.05;;
19285;SDS011;9776;50.798;6.430;2022-12-07T09:55:57;5.57;;;5.18;;
19285;SDS011;9776;50.798;6.430;2022-12-07T09:58:25;5.60;;;5.20;;
19285;SDS011;9776;50.798;6.430;2022-12-07T10:00:55;5.90;;;5.38;;
19285;SDS011;9776;50.798;6.430;2022-12-07T10:03:27;5.50;;;5.18;;
19285;SDS011;9776;50.798;6.430;2022-12-07T10:05:55;5.63;;;5.13;;
19285;SDS011;9776;50.798;6.430;2022-12-07T10:08:22;5.53;;;5.13;;
19285;SDS011;9776;50.798;6.430;2022-12-07T10:10:51;5.63;;;5.22;;
19285;SDS011;9776;50.798;6.430;2022-12-07T10:13:21;6.07;;;5.68;;
19285;SDS011;9776;50.798;6.430;2022-12-07T10:16:00;5.72;;;5.32;;
19285;SDS011;9776;50.798;6.430;2022-12-07T10:18:28;5.93;;;5.50;;
19285;SDS011;9776;50.798;6.430;2022-12-07T10:21:00;5.32;;;5.03;;
19285;SDS011;9776;50.798;6.430;2022-12-07T10:23:29;5.22;;;4.93;;
19285;SDS011;9776;50.798;6.430;2022-12-07T10:25:56;6.03;;;5.63;;
19285;SDS011;9776;50.798;6.430;2022-12-07T10:28:22;6.03;;;5.53;;
19285;SDS011;9776;50.798;6.430;2022-12-07T10:30:51;6.45;;;5.95;;
19285;SDS011;9776;50.798;6.430;2022-12-07T10:33:33;6.20;;;5.80;;
19285;SDS011;9776;50.798;6.430;2022-12-07T10:36:15;6.03;;;5.63;;
19285;SDS011;9776;50.798;6.430;2022-12-07T10:38:46;6.28;;;5.78;;
19285;SDS011;9776;50.798;6.430;2022-12-07T10:41:14;5.88;;;5.38;;
19285;SDS011;9776;50.798;6.430;2022-12-07T10:43:49;6.88;;;6.38;;
19285;SDS011;9776;50.798;6.430;2022-12-07T10:46:30;6.50;;;6.10;;
19285;SDS011;9776;50.798;6.430;2022-12-07T10:52:11;6.15;;;5.75;;
19285;SDS011;9776;50.798;6.430;2022-12-07T10:54:46;6.07;;;5.57;;
19285;SDS011;9776;50.798;6.430;2022-12-07T10:57:20;6.65;;;6.15;;
19285;SDS011;9776;50.798;6.430;2022-12-07T11:00:00;6.25;;;5.85;;
19285;SDS011;9776;50.798;6.430;2022-12-07T11:02:35;6.57;;;6.15;;
19285;SDS011;9776;50.798;6.430;2022-12-07T11:05:16;6.43;;;5.95;;
19285;SDS011;9776;50.798;6.430;2022-12-07T11:07:54;4.93;;;4.63;;
19285;SDS011;9776;50.798;6.430;2022-12-07T11:10:31;4.85;;;4.55;;
19285;SDS011;9776;50.798;6.430;2022-12-07T11:13:16;5.15;;;4.75;;
19285;SDS011;9776;50.798;6.430;2022-12-07T11:15:54;5.68;;;5.28;;
19285;SDS011;9776;50.798;6.430;2022-12-07T11:18:29;6.60;;;6.10;;
19285;SDS011;9776;50.798;6.430;2022-12-07T11:21:04;5.80;;;5.40;;
19285;SDS011;9776;50.798;6.430;2022-12-07T11:23:43;6.65;;;6.15;;
19285;SDS011;9776;50.798;6.430;2022-12-07T11:26:17;6.07;;;5.68;;
19285;SDS011;9776;50.798;6.430;2022-12-07T11:29:00;5.32;;;4.93;;
19285;SDS011;9776;50.798;6.430;2022-12-07T11:31:44;5.20;;;4.80;;
19285;SDS011;9776;50.798;6.430;2022-12-07T11:34:23;5.90;;;5.50;;
19285;SDS011;9776;50.798;6.430;2022-12-07T11:36:58;5.15;;;4.70;;
19285;SDS011;9776;50.798;6.430;2022-12-07T11:39:33;4.85;;;4.55;;
19285;SDS011;9776;50.798;6.430;2022-12-07T11:42:04;4.03;;;3.72;;
19285;SDS011;9776;50.798;6.430;2022-12-07T11:44:34;4.45;;;4.15;;
19285;SDS011;9776;50.798;6.430;2022-12-07T11:47:07;3.78;;;3.55;;
19285;SDS011;9776;50.798;6.430;2022-12-07T11:49:41;3.95;;;3.65;;
19285;SDS011;9776;50.798;6.430;2022-12-07T11:52:13;4.15;;;3.85;;
19285;SDS011;9776;50.798;6.430;2022-12-07T11:54:48;3.70;;;3.40;;
19285;SDS011;9776;50.798;6.430;2022-12-07T11:57:20;4.22;;;3.92;;
19285;SDS011;9776;50.798;6.430;2022-12-07T11:59:56;3.40;;;3.20;;
19285;SDS011;9776;50.798;6.430;2022-12-07T12:02:28;3.47;;;3.28;;
19285;SDS011;9776;50.798;6.430;2022-12-07T12:05:02;3.33;;;3.13;;
19285;SDS011;9776;50.798;6.430;2022-12-07T12:07:39;3.65;;;3.35;;
19285;SDS011;9776;50.798;6.430;2022-12-07T12:10:14;3.95;;;3.53;;
19285;SDS011;9776;50.798;6.430;2022-12-07T12:12:52;3.90;;;3.60;;
19285;SDS011;9776;50.798;6.430;2022-12-07T12:15:36;4.18;;;3.78;;
19285;SDS011;9776;50.798;6.430;2022-12-07T12:18:16;3.95;;;3.67;;
19285;SDS011;9776;50.798;6.430;2022-12-07T12:20:54;3.38;;;3.17;;
19285;SDS011;9776;50.798;6.430;2022-12-07T12:23:26;3.90;;;3.60;;
19285;SDS011;9776;50.798;6.430;2022-12-07T12:26:03;3.90;;;3.53;;
19285;SDS011;9776;50.798;6.430;2022-12-07T12:28:34;3.78;;;3.47;;
19285;SDS011;9776;50.798;6.430;2022-12-07T12:31:06;3.53;;;3.33;;
19285;SDS011;9776;50.798;6.430;2022-12-07T12:33:36;4.13;;;3.83;;
19285;SDS011;9776;50.798;6.430;2022-12-07T12:36:22;3.97;;;3.67;;
19285;SDS011;9776;50.798;6.430;2022-12-07T12:38:51;3.58;;;3.38;;
19285;SDS011;9776;50.798;6.430;2022-12-07T12:41:56;3.53;;;3.22;;
19285;SDS011;9776;50.798;6.430;2022-12-07T12:47:40;3.50;;;3.20;;
19285;SDS011;9776;50.798;6.430;2022-12-07T12:50:23;3.00;;;2.80;;
19285;SDS011;9776;50.798;6.430;2022-12-07T12:55:46;4.18;;;3.80;;
19285;SDS011;9776;50.798;6.430;2022-12-07T12:58:34;3.78;;;3.47;;
19285;SDS011;9776;50.798;6.430;2022-12-07T13:04:17;3.90;;;3.60;;
19285;SDS011;9776;50.798;6.430;2022-12-07T13:06:50;3.53;;;3.22;;
19285;SDS011;9776;50.798;6.430;2022-12-07T13:09:19;3.50;;;3.20;;
19285;SDS011;9776;50.798;6.430;2022-12-07T13:11:49;3.53;;;3.22;;
19285;SDS011;9776;50.798;6.430;2022-12-07T13:23:13;3.60;;;3.30;;
19285;SDS011;9776;50.798;6.430;2022-12-07T13:28:47;3.85;;;3.55;;
19285;SDS011;9776;50.798;6.430;2022-12-07T13:31:19;3.92;;;3.63;;
19285;SDS011;9776;50.798;6.430;2022-12-07T13:33:52;3.78;;;3.47;;
19285;SDS011;9776;50.798;6.430;2022-12-07T13:36:20;4.57;;;3.45;;
19285;SDS011;9776;50.798;6.430;2022-12-07T13:38:53;4.60;;;3.25;;
19285;SDS011;9776;50.798;6.430;2022-12-07T13:41:21;3.47;;;3.28;;
19285;SDS011;9776;50.798;6.430;2022-12-07T13:43:50;3.13;;;2.92;;
19285;SDS011;9776;50.798;6.430;2022-12-07T13:46:21;3.83;;;3.53;;
19285;SDS011;9776;50.798;6.430;2022-12-07T13:48:53;3.95;;;3.65;;
19285;SDS011;9776;50.798;6.430;2022-12-07T13:51:21;3.80;;;3.50;;
19285;SDS011;9776;50.798;6.430;2022-12-07T13:53:50;3.30;;;3.10;;
19285;SDS011;9776;50.798;6.430;2022-12-07T13:56:18;3.88;;;3.55;;
19285;SDS011;9776;50.798;6.430;2022-12-07T13:58:48;3.40;;;3.20;;
19285;SDS011;9776;50.798;6.430;2022-12-07T14:01:14;3.38;;;3.17;;
19285;SDS011;9776;50.798;6.430;2022-12-07T14:03:43;3.90;;;3.45;;
19285;SDS011;9776;50.798;6.430;2022-12-07T14:06:14;3.92;;;3.63;;
19285;SDS011;9776;50.798;6.430;2022-12-07T14:09:05;3.60;;;3.30;;
19285;SDS011;9776;50.798;6.430;2022-12-07T14:11:42;3.63;;;3.33;;
19285;SDS011;9776;50.798;6.430;2022-12-07T14:14:10;3.92;;;3.63;;
19285;SDS011;9776;50.798;6.430;2022-12-07T14:16:42;3.83;;;3.53;;
19285;SDS011;9776;50.798;6.430;2022-12-07T14:22:08;3.63;;;3.33;;
19285;SDS011;9776;50.798;6.430;2022-12-07T14:24:44;3.65;;;3.35;;
19285;SDS011;9776;50.798;6.430;2022-12-07T14:27:16;3.20;;;3.00;;
19285;SDS011;9776;50.798;6.430;2022-12-07T14:29:44;3.58;;;3.38;;
19285;SDS011;9776;50.798;6.430;2022-12-07T14:32:19;3.60;;;3.35;;
19285;SDS011;9776;50.798;6.430;2022-12-07T14:34:53;4.20;;;3.72;;
19285;SDS011;9776;50.798;6.430;2022-12-07T14:37:25;4.18;;;3.85;;
19285;SDS011;9776;50.798;6.430;2022-12-07T14:39:52;3.90;;;3.60;;
19285;SDS011;9776;50.798;6.430;2022-12-07T14:42:19;3.58;;;3.35;;
19285;SDS011;9776;50.798;6.430;2022-12-07T14:44:49;4.20;;;3.80;;
19285;SDS011;9776;50.798;6.430;2022-12-07T14:47:16;4.43;;;4.10;;
19285;SDS011;9776;50.798;6.430;2022-12-07T14:49:42;3.95;;;3.50;;
19285;SDS011;9776;50.798;6.430;2022-12-07T14:52:11;3.95;;;3.65;;
19285;SDS011;9776;50.798;6.430;2022-12-07T14:54:42;3.97;;;3.67;;
19285;SDS011;9776;50.798;6.430;2022-12-07T14:57:10;4.38;;;4.03;;
19285;SDS011;9776;50.798;6.430;2022-12-07T14:59:37;4.18;;;3.70;;
19285;SDS011;9776;50.798;6.430;2022-12-07T15:02:04;4.22;;;3.92;;
19285;SDS011;9776;50.798;6.430;2022-12-07T15:04:31;3.70;;;3.50;;
19285;SDS011;9776;50.798;6.430;2022-12-07T15:06:58;4.28;;;3.97;;
19285;SDS011;9776;50.798;6.430;2022-12-07T15:09:25;3.75;;;3.45;;
19285;SDS011;9776;50.798;6.430;2022-12-07T15:11:54;3.80;;;3.60;;
19285;SDS011;9776;50.798;6.430;2022-12-07T15:14:20;5.45;;;5.05;;
19285;SDS011;9776;50.798;6.430;2022-12-07T15:16:47;5.03;;;4.63;;
19285;SDS011;9776;50.798;6.430;2022-12-07T15:19:14;5.70;;;5.30;;
19285;SDS011;9776;50.798;6.430;2022-12-07T15:21:43;4.07;;;3.78;;
19285;SDS011;9776;50.798;6.430;2022-12-07T15:24:10;4.15;;;3.85;;
19285;SDS011;9776;50.798;6.430;2022-12-07T15:26:38;4.97;;;4.68;;
19285;SDS011;9776;50.798;6.430;2022-12-07T15:29:07;4.15;;;3.85;;
19285;SDS011;9776;50.798;6.430;2022-12-07T15:31:34;5.13;;;4.72;;
19285;SDS011;9776;50.798;6.430;2022-12-07T15:34:02;31.15;;;28.48;;
19285;SDS011;9776;50.798;6.430;2022-12-07T15:36:31;5.03;;;4.63;;
19285;SDS011;9776;50.798;6.430;2022-12-07T15:38:58;5.65;;;5.20;;
19285;SDS011;9776;50.798;6.430;2022-12-07T15:41:25;5.20;;;4.70;;
19285;SDS011;9776;50.798;6.430;2022-12-07T15:43:52;4.60;;;4.30;;
19285;SDS011;9776;50.798;6.430;2022-12-07T15:46:39;5.25;;;4.85;;
19285;SDS011;9776;50.798;6.430;2022-12-07T15:49:09;4.40;;;4.10;;